.
WxDataArchive / Data Records for 2006-12-03
2006-12-02 December 2006 2006-12-04

Data Records for Sunday, 03 December 2006

Time	Temp	Chill	HIndex	Humid	Dewpt	 Wind 	HiWind	WindDir	Rain 	Barom 
-----	----	-----	------	-----	-----	------	------	-------	-----	----- 
00:00	29.1	29.1	29.1	76	22.5	3	10	270	0.00	30.386 
00:05	29.0	29.0	29.0	76	22.4	2	5	248	0.00	30.386 
00:10	29.0	29.0	29.0	76	22.4	2	4	270	0.00	30.386 
00:15	28.8	28.8	28.8	75	21.9	3	5	270	0.00	30.390 
00:20	28.7	28.7	28.7	75	21.8	2	7	270	0.00	30.390 
00:25	28.5	28.5	28.5	76	21.9	2	4	270	0.00	30.390 
00:30	28.4	28.4	28.4	76	21.8	2	5	270	0.00	30.392 
00:35	28.2	28.2	28.2	76	21.6	2	7	270	0.00	30.392 
00:40	28.2	28.2	28.2	76	21.6	3	9	270	0.00	30.392 
00:45	28.2	28.2	28.2	76	21.6	1	3	270	0.00	30.390 
00:50	28.1	28.1	28.1	76	21.5	2	4	270	0.00	30.390 
00:55	27.9	27.9	27.9	75	21.0	2	6	270	0.00	30.390 
01:00	27.9	27.9	27.9	75	21.0	2	9	270	0.00	30.390 
01:05	27.8	27.8	27.8	74	20.6	2	6	270	0.00	30.390 
01:10	27.6	27.6	27.6	75	20.7	2	6	270	0.00	30.390 
01:15	27.6	27.6	27.6	75	20.7	1	4	270	0.00	30.387 
01:20	27.5	27.5	27.5	76	20.9	1	5	270	0.00	30.387 
01:25	27.5	27.5	27.5	76	20.9	1	3	292	0.00	30.387 
01:30	27.3	27.3	27.3	74	20.1	2	10	270	0.00	30.386 
01:35	27.0	27.0	27.0	73	19.5	2	5	270	0.00	30.386 
01:40	26.7	26.7	26.7	73	19.2	2	3	248	0.00	30.386 
01:45	26.6	26.6	26.6	74	19.5	2	5	270	0.00	30.389 
01:50	26.4	26.4	26.4	73	18.9	3	7	270	0.00	30.389 
01:55	26.3	26.3	26.3	73	18.8	3	5	270	0.00	30.389 
02:00	26.1	26.1	26.1	74	19.0	2	6	270	0.00	30.395 
02:05	26.0	26.0	26.0	73	18.6	2	5	270	0.00	30.395 
02:10	25.8	25.8	25.8	72	18.0	2	6	270	0.00	30.395 
02:15	25.7	25.7	25.7	71	17.6	2	6	270	0.00	30.393 
02:20	25.6	25.6	25.6	71	17.5	2	4	248	0.00	30.393 
02:25	25.4	25.4	25.4	71	17.3	2	4	270	0.00	30.393 
02:30	25.3	25.3	25.3	69	16.6	2	5	270	0.00	30.393 
02:35	25.1	25.1	25.1	68	16.1	2	5	270	0.00	30.393 
02:40	24.8	24.8	24.8	67	15.4	1	4	292	0.00	30.393 
02:45	24.7	24.7	24.7	64	14.3	2	7	270	0.00	30.394 
02:50	24.2	24.2	24.2	62	13.1	2	9	270	0.00	30.394 
02:55	23.9	23.9	23.9	63	13.2	2	6	270	0.00	30.394 
03:00	23.8	23.8	23.8	64	13.4	2	6	270	0.00	30.398 
03:05	23.5	23.5	23.5	65	13.5	2	5	270	0.00	30.398 
03:10	23.3	23.3	23.3	65	13.3	2	5	270	0.00	30.398 
03:15	23.0	23.0	23.0	66	13.4	1	3	270	0.00	30.399 
03:20	22.9	22.9	22.9	67	13.6	2	7	248	0.00	30.399 
03:25	22.7	22.7	22.7	68	13.8	2	4	270	0.00	30.399 
03:30	22.5	22.5	22.5	68	13.6	1	4	270	0.00	30.402 
03:35	22.4	22.4	22.4	68	13.5	1	2	248	0.00	30.402 
03:40	22.2	22.2	22.2	68	13.3	1	3	270	0.00	30.402 
03:45	22.1	22.1	22.1	67	12.8	1	3	270	0.00	30.405 
03:50	21.9	21.9	21.9	67	12.7	2	4	248	0.00	30.405 
03:55	21.6	21.6	21.6	68	12.7	1	4	270	0.00	30.405 
04:00	21.4	21.4	21.4	68	12.5	2	5	248	0.00	30.408 
04:05	21.3	21.3	21.3	69	12.7	1	3	270	0.00	30.408 
04:10	21.1	21.1	21.1	69	12.5	1	5	248	0.00	30.408 
04:15	21.1	21.1	21.1	69	12.5	1	3	248	0.00	30.404 
04:20	21.0	21.0	21.0	69	12.5	2	6	270	0.00	30.404 
04:25	20.8	20.8	20.8	68	11.9	2	4	270	0.00	30.404 
04:30	20.6	20.6	20.6	69	12.1	1	7	270	0.00	30.402 
04:35	20.6	20.6	20.6	68	11.7	2	6	270	0.00	30.402 
04:40	20.5	20.5	20.5	69	12.0	1	3	248	0.00	30.402 
04:45	20.3	20.3	20.3	69	11.8	1	3	248	0.00	30.404 
04:50	20.3	20.3	20.3	69	11.8	1	4	270	0.00	30.404 
04:55	20.2	20.2	20.2	69	11.7	1	4	270	0.00	30.404 
05:00	20.2	20.2	20.2	69	11.7	1	5	270	0.00	30.405 
05:05	20.2	20.2	20.2	69	11.7	1	4	248	0.00	30.405 
05:10	20.2	20.2	20.2	69	11.7	2	7	270	0.00	30.405 
05:15	20.0	20.0	20.0	70	11.8	1	7	270	0.00	30.408 
05:20	20.0	20.0	20.0	69	11.5	1	6	248	0.00	30.408 
05:25	20.0	20.0	20.0	69	11.5	1	4	270	0.00	30.408 
05:30	20.0	20.0	20.0	70	11.8	1	4	270	0.00	30.406 
05:35	19.9	19.9	19.9	70	11.7	1	3	270	0.00	30.406 
05:40	19.9	19.9	19.9	70	11.7	1	4	270	0.00	30.406 
05:45	19.7	19.7	19.7	70	11.5	1	3	270	0.00	30.409 
05:50	19.7	19.7	19.7	70	11.5	1	5	248	0.00	30.409 
05:55	19.7	19.7	19.7	70	11.5	2	6	270	0.00	30.409 
06:00	19.7	19.7	19.7	70	11.5	1	4	248	0.00	30.410 
06:05	19.5	19.5	19.5	74	12.6	1	5	225	0.00	30.410 
06:10	19.4	19.4	19.4	71	11.6	1	4	248	0.00	30.410 
06:15	19.4	19.4	19.4	71	11.6	1	3	248	0.00	30.411 
06:20	19.2	19.2	19.2	71	11.4	1	3	248	0.00	30.411 
06:25	19.2	19.2	19.2	71	11.4	1	4	248	0.00	30.411 
06:30	19.1	19.1	19.1	72	11.6	1	6	270	0.00	30.414 
06:35	19.1	19.1	19.1	72	11.6	1	3	248	0.00	30.414 
06:40	18.9	18.9	18.9	71	11.1	2	5	270	0.00	30.414 
06:45	18.9	18.9	18.9	72	11.4	1	6	248	0.00	30.417 
06:50	18.8	18.8	18.8	72	11.3	1	5	248	0.00	30.417 
06:55	18.8	18.8	18.8	72	11.3	2	6	248	0.00	30.417 
07:00	18.6	18.6	18.6	72	11.1	1	5	270	0.00	30.420 
07:05	18.6	18.6	18.6	72	11.1	1	3	248	0.00	30.420 
07:10	18.6	18.6	18.6	72	11.1	1	2	248	0.00	30.420 
07:15	18.4	18.4	18.4	73	11.2	1	2	248	0.00	30.422 
07:20	18.4	18.4	18.4	73	11.2	1	5	248	0.00	30.422 
07:25	18.4	18.4	18.4	73	11.2	1	3	248	0.00	30.422 
07:30	18.4	18.4	18.4	73	11.2	2	10	248	0.00	30.427 
07:35	18.4	18.4	18.4	72	10.9	1	5	270	0.00	30.427 
07:40	18.4	18.4	18.4	73	11.2	1	5	248	0.00	30.427 
07:45	18.4	18.4	18.4	72	10.9	1	7	248	0.00	30.431 
07:50	18.3	18.3	18.3	72	10.8	1	3	248	0.00	30.431 
07:55	18.3	18.3	18.3	73	11.1	0	2	248	0.00	30.431 
08:00	18.1	18.1	18.1	73	10.9	1	6	270	0.00	30.436 
08:05	18.3	18.3	18.3	73	11.1	1	4	248	0.00	30.436 
08:10	18.3	18.3	18.3	73	11.1	0	3	248	0.00	30.436 
08:15	18.3	18.3	18.3	73	11.1	1	6	248	0.00	30.434 
08:20	18.3	18.3	18.3	72	10.8	2	7	248	0.00	30.434 
08:25	18.4	18.4	18.4	72	10.9	2	6	248	0.00	30.434 
08:30	18.4	18.4	18.4	72	10.9	2	7	270	0.00	30.439 
08:35	18.4	18.4	18.4	72	10.9	1	4	248	0.00	30.439 
08:40	18.6	18.6	18.6	72	11.1	1	4	248	0.00	30.439 
08:45	18.6	18.6	18.6	72	11.1	1	3	248	0.00	30.440 
08:50	18.8	18.8	18.8	72	11.3	2	10	270	0.00	30.440 
08:55	18.8	18.8	18.8	72	11.3	2	6	248	0.00	30.440 
09:00	18.9	18.9	18.9	72	11.4	1	3	248	0.00	30.437 
09:05	19.1	19.1	19.1	71	11.3	1	4	270	0.00	30.437 
09:10	19.4	19.4	19.4	71	11.6	1	5	270	0.00	30.437 
09:15	19.4	19.4	19.4	71	11.6	2	6	248	0.00	30.440 
09:20	19.4	19.4	19.4	71	11.6	2	9	270	0.00	30.440 
09:25	19.5	19.5	19.5	71	11.7	2	6	270	0.00	30.440 
09:30	19.5	19.5	19.5	70	11.3	1	6	248	0.00	30.443 
09:35	19.7	19.7	19.7	70	11.5	2	5	270	0.00	30.443 
09:40	19.7	19.7	19.7	70	11.5	2	9	270	0.00	30.443 
09:45	20.2	20.2	20.2	70	12.0	2	6	248	0.00	30.444 
09:50	20.5	20.5	20.5	69	12.0	3	7	248	0.00	30.444 
09:55	20.8	20.8	20.8	68	11.9	2	5	270	0.00	30.444 
10:00	21.1	21.1	21.1	68	12.2	2	4	270	0.00	30.445 
10:05	21.3	21.3	21.3	67	12.1	2	5	270	0.00	30.445 
10:10	21.3	21.3	21.3	67	12.1	2	5	270	0.00	30.445 
10:15	21.3	21.3	21.3	67	12.1	2	4	270	0.00	30.448 
10:20	21.4	21.4	21.4	68	12.5	2	4	270	0.00	30.448 
10:25	21.3	21.3	21.3	66	11.7	3	9	270	0.00	30.448 
10:30	21.3	21.3	21.3	67	12.1	2	6	270	0.00	30.451 
10:35	21.3	21.3	21.3	66	11.7	3	9	270	0.00	30.451 
10:40	21.1	21.1	21.1	67	11.9	3	9	270	0.00	30.451 
10:45	21.3	21.3	21.3	67	12.1	3	5	248	0.00	30.452 
10:50	21.6	21.6	21.6	67	12.4	2	5	270	0.00	30.452 
10:55	21.8	21.8	21.8	66	12.2	3	6	270	0.00	30.452 
11:00	21.9	21.9	21.9	66	12.3	2	4	270	0.00	30.449 
11:05	21.9	21.9	21.9	65	12.0	2	6	270	0.00	30.449 
11:10	21.9	21.9	21.9	66	12.3	1	3	270	0.00	30.449 
11:15	22.2	22.2	22.2	65	12.3	1	3	270	0.00	30.443 
11:20	22.4	22.4	22.4	64	12.1	3	10	270	0.00	30.443 
11:25	22.4	22.4	22.4	64	12.1	3	11	270	0.00	30.443 
11:30	22.5	22.5	22.5	63	11.8	3	9	270	0.00	30.440 
11:35	22.2	16.8	22.2	63	11.6	4	10	270	0.00	30.440 
11:40	22.4	22.4	22.4	64	12.1	3	9	270	0.00	30.440 
11:45	22.2	16.8	22.2	63	11.6	4	13	270	0.00	30.437 
11:50	22.1	22.1	22.1	63	11.5	3	9	248	0.00	30.437 
11:55	22.1	22.1	22.1	63	11.5	3	8	270	0.00	30.437 
12:00	22.4	22.4	22.4	63	11.7	2	10	270	0.00	30.435 
12:05	22.9	22.9	22.9	62	11.9	2	7	270	0.00	30.435 
12:10	23.2	23.2	23.2	60	11.4	2	7	248	0.00	30.435 
12:15	23.3	23.3	23.3	60	11.5	3	9	270	0.00	30.425 
12:20	23.3	23.3	23.3	60	11.5	2	6	270	0.00	30.425 
12:25	23.3	23.3	23.3	58	10.7	2	7	270	0.00	30.425 
12:30	23.3	23.3	23.3	58	10.7	3	6	270	0.00	30.417 
12:35	23.5	23.5	23.5	56	10.1	3	9	270	0.00	30.417 
12:40	23.8	23.8	23.8	55	10.0	3	6	270	0.00	30.417 
12:45	23.5	18.3	23.5	55	9.7	4	12	270	0.00	30.411 
12:50	23.2	23.2	23.2	57	10.3	3	6	292	0.00	30.411 
12:55	23.0	23.0	23.0	55	9.3	2	6	270	0.00	30.411 
13:00	23.0	23.0	23.0	58	10.5	2	7	270	0.00	30.414 
13:05	23.2	23.2	23.2	58	10.6	3	6	270	0.00	30.414 
13:10	23.5	23.5	23.5	57	10.5	3	12	270	0.00	30.414 
13:15	23.5	23.5	23.5	58	10.9	3	6	270	0.00	30.410 
13:20	23.3	23.3	23.3	57	10.3	3	9	270	0.00	30.410 
13:25	23.2	23.2	23.2	57	10.3	3	10	270	0.00	30.410 
13:30	23.2	17.9	23.2	57	10.3	4	10	248	0.00	30.416 
13:35	23.6	23.6	23.6	58	11.0	2	5	270	0.00	30.416 
13:40	23.9	18.7	23.9	56	10.5	4	12	270	0.00	30.416 
13:45	23.9	18.7	23.9	56	10.5	4	11	270	0.00	30.406 
13:50	24.1	24.1	24.1	56	10.7	3	10	270	0.00	30.406 
13:55	24.4	24.4	24.4	57	11.4	2	10	248	0.00	30.406 
14:00	24.7	24.7	24.7	56	11.3	2	9	270	0.00	30.404 
14:05	25.1	25.1	25.1	56	11.6	3	6	270	0.00	30.404 
14:10	24.8	24.8	24.8	55	11.0	3	5	270	0.00	30.404 
14:15	25.0	25.0	25.0	56	11.5	2	6	270	0.00	30.405 
14:20	25.0	25.0	25.0	56	11.5	2	6	248	0.00	30.405 
14:25	25.0	25.0	25.0	55	11.1	3	7	270	0.00	30.405 
14:30	25.1	25.1	25.1	55	11.2	2	10	270	0.00	30.397 
14:35	25.6	25.6	25.6	55	11.7	2	7	270	0.00	30.397 
14:40	25.3	25.3	25.3	54	11.0	3	10	248	0.00	30.397 
14:45	25.1	25.1	25.1	54	10.8	2	5	270	0.00	30.397 
14:50	25.0	25.0	25.0	56	11.5	2	7	292	0.00	30.397 
14:55	25.4	25.4	25.4	55	11.5	2	6	270	0.00	30.397 
15:00	25.4	25.4	25.4	54	11.1	2	5	270	0.00	30.391 
15:05	25.4	25.4	25.4	56	11.9	3	6	270	0.00	30.391 
15:10	25.3	25.3	25.3	54	11.0	3	8	270	0.00	30.391 
15:15	25.4	25.4	25.4	55	11.5	2	6	270	0.00	30.393 
15:20	25.7	25.7	25.7	53	11.0	3	10	270	0.00	30.393 
15:25	25.7	25.7	25.7	52	10.5	3	7	270	0.00	30.393 
15:30	25.8	25.8	25.8	53	11.1	2	5	270	0.00	30.388 
15:35	25.8	25.8	25.8	54	11.5	3	11	270	0.00	30.388 
15:40	25.7	25.7	25.7	53	11.0	3	9	270	0.00	30.388 
15:45	25.6	25.6	25.6	53	10.9	3	7	270	0.00	30.382 
15:50	25.4	25.4	25.4	55	11.5	3	9	270	0.00	30.382 
15:55	25.1	25.1	25.1	54	10.8	3	7	270	0.00	30.382 
16:00	25.0	20.0	25.0	56	11.5	4	12	270	0.00	30.384 
16:05	24.7	24.7	24.7	55	10.9	3	11	270	0.00	30.384 
16:10	24.7	24.7	24.7	56	11.3	2	6	248	0.00	30.384 
16:15	24.7	24.7	24.7	55	10.9	2	7	270	0.00	30.384 
16:20	24.7	24.7	24.7	55	10.9	3	11	248	0.00	30.384 
16:25	24.5	24.5	24.5	54	10.3	3	7	270	0.00	30.384 
16:30	24.4	24.4	24.4	55	10.6	3	12	270	0.00	30.390 
16:35	24.1	24.1	24.1	55	10.3	3	12	270	0.00	30.390 
16:40	23.9	23.9	23.9	56	10.5	3	9	270	0.00	30.390 
16:45	23.8	23.8	23.8	57	10.8	2	4	248	0.00	30.396 
16:50	23.6	23.6	23.6	57	10.6	2	4	270	0.00	30.396 
16:55	23.5	23.5	23.5	57	10.5	2	7	270	0.00	30.396 
17:00	23.3	23.3	23.3	58	10.7	2	5	270	0.00	30.400 
17:05	23.2	23.2	23.2	58	10.6	2	7	270	0.00	30.400 
17:10	23.0	23.0	23.0	58	10.5	3	12	270	0.00	30.400 
17:15	22.9	22.9	22.9	59	10.7	2	6	270	0.00	30.401 
17:20	22.7	22.7	22.7	59	10.6	2	9	270	0.00	30.401 
17:25	22.5	22.5	22.5	59	10.4	3	8	270	0.00	30.401 
17:30	22.4	22.4	22.4	59	10.3	2	6	270	0.00	30.400 
17:35	22.2	22.2	22.2	60	10.5	3	10	270	0.00	30.400 
17:40	22.1	22.1	22.1	60	10.4	2	7	248	0.00	30.400 
17:45	21.9	21.9	21.9	61	10.5	2	5	270	0.00	30.401 
17:50	21.8	21.8	21.8	60	10.1	3	11	270	0.00	30.401 
17:55	21.8	21.8	21.8	61	10.4	2	10	270	0.00	30.401 
18:00	21.6	21.6	21.6	61	10.3	2	9	270	0.00	30.402 
18:05	21.4	21.4	21.4	61	10.1	2	7	248	0.00	30.402 
18:10	21.4	21.4	21.4	62	10.4	1	6	270	0.00	30.402 
18:15	21.3	21.3	21.3	62	10.3	1	5	270	0.00	30.408 
18:20	21.1	21.1	21.1	63	10.5	2	7	270	0.00	30.408 
18:25	21.1	21.1	21.1	63	10.5	1	7	270	0.00	30.408 
18:30	21.0	21.0	21.0	63	10.4	1	6	270	0.00	30.412 
18:35	20.8	20.8	20.8	64	10.6	2	7	270	0.00	30.412 
18:40	20.8	20.8	20.8	65	10.9	2	7	270	0.00	30.412 
18:45	20.6	20.6	20.6	65	10.7	2	11	248	0.00	30.414 
18:50	20.6	20.6	20.6	65	10.7	2	6	248	0.00	30.414 
18:55	20.5	20.5	20.5	66	11.0	3	10	270	0.00	30.414 
19:00	20.5	20.5	20.5	66	11.0	2	6	248	0.00	30.416 
19:05	20.5	20.5	20.5	66	11.0	1	4	270	0.00	30.416 
19:10	20.3	20.3	20.3	66	10.8	2	5	270	0.00	30.416 
19:15	20.2	20.2	20.2	67	11.0	2	6	270	0.00	30.421 
19:20	20.0	20.0	20.0	68	11.2	2	9	270	0.00	30.421 
19:25	19.9	19.9	19.9	68	11.1	2	6	270	0.00	30.421 
19:30	19.9	19.9	19.9	68	11.1	1	5	270	0.00	30.421 
19:35	19.7	19.7	19.7	69	11.2	1	4	248	0.00	30.421 
19:40	19.7	19.7	19.7	69	11.2	1	6	248	0.00	30.421 
19:45	19.5	19.5	19.5	69	11.0	2	7	248	0.00	30.427 
19:50	19.4	19.4	19.4	69	10.9	1	7	270	0.00	30.427 
19:55	19.4	19.4	19.4	70	11.2	1	6	270	0.00	30.427 
20:00	19.5	19.5	19.5	70	11.3	2	10	270	0.00	30.433 
20:05	19.5	19.5	19.5	70	11.3	2	5	270	0.00	30.433 
20:10	19.7	19.7	19.7	70	11.5	1	5	270	0.00	30.433 
20:15	19.7	19.7	19.7	70	11.5	2	6	270	0.00	30.434 
20:20	19.7	19.7	19.7	70	11.5	2	6	270	0.00	30.434 
20:25	19.5	19.5	19.5	70	11.3	2	5	292	0.00	30.434 
20:30	19.4	19.4	19.4	69	10.9	3	7	270	0.00	30.436 
20:35	19.1	19.1	19.1	68	10.3	3	10	270	0.00	30.436 
20:40	18.6	18.6	18.6	69	10.2	2	5	270	0.00	30.436 
20:45	18.1	18.1	18.1	69	9.7	3	10	270	0.00	30.446 
20:50	17.8	17.8	17.8	70	9.7	2	6	270	0.00	30.446 
20:55	17.5	17.5	17.5	70	9.4	1	5	270	0.00	30.446 
21:00	17.3	17.3	17.3	70	9.2	1	5	270	0.00	30.447 
21:05	17.3	17.3	17.3	70	9.2	2	6	270	0.00	30.447 
21:10	17.2	17.2	17.2	71	9.4	1	6	270	0.00	30.447 
21:15	16.9	16.9	16.9	72	9.5	2	4	248	0.00	30.445 
21:20	16.7	16.7	16.7	72	9.3	1	4	270	0.00	30.445 
21:25	16.5	16.5	16.5	73	9.4	2	9	270	0.00	30.445 
21:30	16.5	16.5	16.5	73	9.4	2	6	270	0.00	30.448 
21:35	16.4	16.4	16.4	73	9.3	2	7	270	0.00	30.448 
21:40	16.4	16.4	16.4	73	9.3	2	6	270	0.00	30.448 
21:45	16.2	16.2	16.2	74	9.4	1	6	248	0.00	30.450 
21:50	16.2	16.2	16.2	74	9.4	1	4	270	0.00	30.450 
21:55	16.1	16.1	16.1	74	9.3	2	6	270	0.00	30.450 
22:00	15.9	15.9	15.9	74	9.1	1	9	248	0.00	30.449 
22:05	15.7	15.7	15.7	73	8.6	2	9	270	0.00	30.449 
22:10	15.7	15.7	15.7	73	8.6	2	9	270	0.00	30.449 
22:15	15.6	15.6	15.6	73	8.5	2	8	270	0.00	30.449 
22:20	15.4	15.4	15.4	73	8.3	2	5	270	0.00	30.449 
22:25	15.4	15.4	15.4	73	8.3	1	4	270	0.00	30.449 
22:30	15.4	15.4	15.4	73	8.3	2	5	270	0.00	30.450 
22:35	15.4	15.4	15.4	73	8.3	2	9	270	0.00	30.450 
22:40	15.4	15.4	15.4	73	8.3	1	5	270	0.00	30.450 
22:45	15.6	15.6	15.6	73	8.5	2	9	270	0.00	30.456 
22:50	15.6	9.1	15.6	72	8.2	4	13	270	0.00	30.456 
22:55	15.7	15.7	15.7	73	8.6	3	11	270	0.00	30.456 
23:00	15.7	15.7	15.7	73	8.6	2	7	270	0.00	30.458 
23:05	15.7	15.7	15.7	73	8.6	2	10	270	0.00	30.458 
23:10	15.9	15.9	15.9	73	8.8	2	10	270	0.00	30.458 
23:15	15.9	15.9	15.9	73	8.8	3	13	270	0.00	30.457 
23:20	15.9	15.9	15.9	73	8.8	1	4	270	0.00	30.457 
23:25	16.1	16.1	16.1	73	9.0	2	7	270	0.00	30.457 
23:30	16.1	16.1	16.1	74	9.3	2	5	248	0.00	30.453 
23:35	15.9	15.9	15.9	74	9.1	2	5	248	0.00	30.453 
23:40	15.9	15.9	15.9	73	8.8	3	11	248	0.00	30.453 
23:45	15.9	15.9	15.9	73	8.8	2	7	270	0.00	30.457 
23:50	15.9	15.9	15.9	73	8.8	2	9	270	0.00	30.457 
23:55	15.9	15.9	15.9	73	8.8	2	10	270	0.00	30.457 

CoCoRaHS
IN-AL-39
A2 Web Hosting
Creative Commons License
GoDaddy
Look for:

loaded 2017-10-17 00:33:54 • last modified 2010-11-18 10:43:29
Privacy PolicyDisclaimer
• wx.awcolley.com is powered by PmWiki v.2002016 •
• all content (unless otherwise noted) © 2017 A W Colley